createdAt,value
2022-12-27T00:00:54.312Z,10.82
2022-12-27T00:03:22.351Z,10.73
2022-12-27T00:05:49.872Z,10.67
2022-12-27T00:08:17.419Z,10.60
2022-12-27T00:10:45.204Z,10.54
2022-12-27T00:13:12.697Z,10.46
2022-12-27T00:15:40.094Z,10.39
2022-12-27T00:18:07.867Z,10.35
2022-12-27T00:20:35.330Z,10.32
2022-12-27T00:23:02.922Z,10.23
2022-12-27T00:25:30.661Z,10.22
2022-12-27T00:27:58.202Z,10.16
2022-12-27T00:30:25.660Z,10.16
2022-12-27T00:32:53.361Z,10.13
2022-12-27T00:35:20.855Z,10.21
2022-12-27T00:37:48.390Z,10.14
2022-12-27T00:40:16.158Z,10.11
2022-12-27T00:42:43.537Z,10.12
2022-12-27T00:45:11.542Z,10.15
2022-12-27T00:47:40.263Z,10.09
2022-12-27T00:50:08.022Z,10.08
2022-12-27T00:52:35.400Z,10.02
2022-12-27T00:55:03.700Z,9.99
2022-12-27T00:57:31.193Z,10.01
2022-12-27T00:59:58.818Z,10.01
2022-12-27T01:02:26.600Z,10.02
2022-12-27T01:04:55.111Z,10.01
2022-12-27T01:07:22.878Z,10.02
2022-12-27T01:09:50.626Z,10.01
2022-12-27T01:12:18.103Z,10.01
2022-12-27T01:14:45.608Z,10.03
2022-12-27T01:17:13.414Z,10.00
2022-12-27T01:19:41.069Z,9.99
2022-12-27T01:22:08.545Z,9.94
2022-12-27T01:24:36.410Z,9.94
2022-12-27T01:27:03.914Z,9.90
2022-12-27T01:29:32.273Z,9.92
2022-12-27T01:32:00.055Z,9.91
2022-12-27T01:34:27.596Z,9.90
2022-12-27T01:36:55.083Z,9.96
2022-12-27T01:39:22.997Z,9.98
2022-12-27T01:42:09.125Z,9.99
2022-12-27T01:44:40.167Z,9.94
2022-12-27T01:47:14.065Z,9.95
2022-12-27T01:50:11.180Z,10.00
2022-12-27T01:52:49.289Z,10.03
2022-12-27T01:55:22.850Z,10.00
2022-12-27T01:57:54.200Z,10.00
2022-12-27T02:00:21.991Z,9.96
2022-12-27T02:02:51.246Z,9.95
2022-12-27T02:05:20.698Z,9.92
2022-12-27T02:08:26.323Z,9.93
2022-12-27T02:10:56.277Z,9.90
2022-12-27T02:13:24.123Z,9.91
2022-12-27T02:15:51.832Z,9.92
2022-12-27T02:18:19.820Z,9.91
2022-12-27T02:20:47.264Z,9.89
2022-12-27T02:23:45.525Z,9.91
2022-12-27T02:26:24.456Z,9.88
2022-12-27T02:29:07.049Z,9.87
2022-12-27T02:32:07.161Z,9.83
2022-12-27T02:35:10.014Z,9.82
2022-12-27T02:37:49.824Z,9.81
2022-12-27T02:40:39.583Z,9.76
2022-12-27T02:43:27.363Z,9.77
2022-12-27T02:46:22.794Z,9.75
2022-12-27T02:49:18.030Z,9.72
2022-12-27T02:52:19.268Z,9.69
2022-12-27T02:55:14.407Z,9.68
2022-12-27T02:58:01.219Z,9.65
2022-12-27T03:00:58.179Z,9.65
2022-12-27T03:03:48.802Z,9.64
2022-12-27T03:06:41.772Z,9.63
2022-12-27T03:09:46.024Z,9.62
2022-12-27T03:13:11.272Z,9.62
2022-12-27T03:15:56.887Z,9.60
2022-12-27T03:18:49.279Z,9.56
2022-12-27T03:21:43.879Z,9.58
2022-12-27T03:24:32.027Z,9.58
2022-12-27T03:27:00.566Z,9.60
2022-12-27T03:29:47.207Z,9.53
2022-12-27T03:32:34.904Z,9.61
2022-12-27T03:35:12.544Z,9.60
2022-12-27T03:38:02.095Z,9.58
2022-12-27T03:41:01.669Z,9.58
2022-12-27T03:43:30.503Z,9.53
2022-12-27T03:46:36.669Z,9.53
2022-12-27T03:49:25.474Z,9.49
2022-12-27T03:52:08.545Z,9.43
2022-12-27T03:54:44.217Z,9.47
2022-12-27T03:57:24.211Z,9.49
2022-12-27T03:59:52.402Z,9.47
2022-12-27T04:02:20.471Z,9.45
2022-12-27T04:04:50.467Z,9.43
2022-12-27T04:07:18.101Z,9.32
2022-12-27T04:10:04.265Z,9.39
2022-12-27T04:12:50.538Z,9.37
2022-12-27T04:15:36.702Z,9.37
2022-12-27T04:18:23.543Z,9.35
2022-12-27T04:21:10.330Z,9.32
2022-12-27T04:23:56.577Z,9.30
2022-12-27T04:26:42.594Z,9.29
2022-12-27T04:29:29.245Z,9.27
2022-12-27T04:32:15.241Z,9.27
2022-12-27T04:34:43.638Z,9.26
2022-12-27T04:37:15.508Z,9.24
2022-12-27T04:40:03.430Z,9.24
2022-12-27T04:42:49.806Z,9.24
2022-12-27T04:45:36.076Z,9.20
2022-12-27T04:48:22.350Z,9.20
2022-12-27T04:51:08.690Z,9.19
2022-12-27T04:53:54.829Z,9.18
2022-12-27T04:56:22.576Z,9.17
2022-12-27T04:59:08.631Z,9.17
2022-12-27T05:01:55.386Z,9.15
2022-12-27T05:04:23.239Z,9.13
2022-12-27T05:06:51.040Z,9.11
2022-12-27T05:09:38.070Z,9.08
2022-12-27T05:12:24.655Z,9.06
2022-12-27T05:14:52.084Z,9.03
2022-12-27T05:17:19.865Z,9.03
2022-12-27T05:19:47.283Z,9.00
2022-12-27T05:22:33.263Z,8.99
2022-12-27T05:25:19.267Z,8.98
2022-12-27T05:27:46.750Z,8.95
2022-12-27T05:30:15.664Z,8.95
2022-12-27T05:32:43.160Z,8.95
2022-12-27T05:35:10.701Z,8.98
2022-12-27T05:37:38.428Z,8.96
2022-12-27T05:40:09.426Z,8.96
2022-12-27T05:42:36.856Z,8.95
2022-12-27T05:45:05.094Z,8.93
2022-12-27T05:47:32.746Z,8.95
2022-12-27T05:50:00.167Z,8.96
2022-12-27T05:52:30.467Z,8.94
2022-12-27T05:54:57.902Z,8.96
2022-12-27T05:57:25.380Z,8.94
2022-12-27T05:59:53.217Z,8.93
2022-12-27T06:02:20.748Z,8.92
2022-12-27T06:04:48.558Z,8.91
2022-12-27T06:07:16.452Z,8.91
2022-12-27T06:09:44.081Z,8.89
2022-12-27T06:12:11.868Z,8.89
2022-12-27T06:14:39.314Z,8.88
2022-12-27T06:17:07.077Z,8.91
2022-12-27T06:19:34.866Z,8.88
2022-12-27T06:22:02.339Z,8.88
2022-12-27T06:24:29.826Z,8.90
2022-12-27T06:26:57.542Z,8.89
2022-12-27T06:29:24.977Z,8.91
2022-12-27T06:31:52.656Z,8.91
2022-12-27T06:34:20.515Z,8.91
2022-12-27T06:36:50.922Z,8.90
2022-12-27T06:39:19.449Z,8.84
2022-12-27T06:41:47.372Z,8.87
2022-12-27T06:44:14.786Z,8.83
2022-12-27T06:46:42.320Z,8.82
2022-12-27T06:49:10.708Z,8.83
2022-12-27T06:51:38.190Z,8.84
2022-12-27T06:54:05.679Z,8.89
2022-12-27T06:56:33.447Z,8.88
2022-12-27T06:59:01.036Z,8.92
2022-12-27T07:01:28.622Z,8.93
2022-12-27T07:03:59.224Z,8.95
2022-12-27T07:06:29.974Z,8.96
2022-12-27T07:09:00.150Z,8.95
2022-12-27T07:11:27.961Z,8.89
2022-12-27T07:13:56.956Z,8.92
2022-12-27T07:16:27.422Z,8.88
2022-12-27T07:18:56.823Z,8.95
2022-12-27T07:21:27.150Z,8.98
2022-12-27T07:23:55.606Z,9.04
2022-12-27T07:26:27.828Z,9.08
2022-12-27T07:28:58.139Z,9.12
2022-12-27T07:31:29.746Z,9.15
2022-12-27T07:33:58.729Z,9.18
2022-12-27T07:36:29.887Z,9.20
2022-12-27T07:38:57.675Z,9.25
2022-12-27T07:41:25.575Z,9.27
2022-12-27T07:43:53.987Z,9.35
2022-12-27T07:46:24.625Z,9.44
2022-12-27T07:48:57.131Z,9.53
2022-12-27T07:51:26.957Z,9.61
2022-12-27T07:53:54.877Z,9.66
2022-12-27T07:56:26.671Z,9.68
2022-12-27T07:58:56.892Z,9.72
2022-12-27T08:01:27.585Z,9.74
2022-12-27T08:03:56.880Z,9.79
2022-12-27T08:06:33.683Z,9.83
2022-12-27T08:09:06.894Z,9.85
2022-12-27T08:11:34.650Z,9.87
2022-12-27T08:14:02.412Z,9.89
2022-12-27T08:16:30.006Z,9.97
2022-12-27T08:18:58.419Z,10.12
2022-12-27T08:21:28.803Z,10.23
2022-12-27T08:23:56.214Z,10.28
2022-12-27T08:26:24.350Z,10.26
2022-12-27T08:28:52.493Z,10.28
2022-12-27T08:31:20.321Z,10.41
2022-12-27T08:33:47.820Z,10.40
2022-12-27T08:36:53.504Z,10.65
2022-12-27T08:39:03.201Z,10.81
2022-12-27T08:41:34.512Z,10.83
2022-12-27T08:44:02.003Z,10.85
2022-12-27T08:46:29.604Z,11.04
2022-12-27T08:48:57.388Z,11.12
2022-12-27T08:51:34.261Z,11.15
2022-12-27T08:54:03.778Z,11.23
2022-12-27T08:56:31.333Z,11.28
2022-12-27T08:58:59.264Z,11.29
2022-12-27T09:01:27.483Z,11.28
2022-12-27T09:03:55.428Z,11.19
2022-12-27T09:06:24.634Z,11.11
2022-12-27T09:08:54.652Z,11.08
2022-12-27T09:11:31.092Z,11.04
2022-12-27T09:14:01.963Z,11.08
2022-12-27T09:16:30.212Z,11.27
2022-12-27T09:18:59.034Z,11.47
2022-12-27T09:21:29.879Z,11.64
2022-12-27T09:23:58.149Z,11.68
2022-12-27T09:26:29.162Z,11.48
2022-12-27T09:28:58.392Z,11.35
2022-12-27T09:31:27.138Z,11.30
2022-12-27T09:33:55.123Z,11.27
2022-12-27T09:36:28.519Z,11.21
2022-12-27T09:38:58.178Z,11.30
2022-12-27T09:44:40.326Z,11.30
2022-12-27T09:47:29.303Z,11.21
2022-12-27T09:50:06.119Z,11.22
2022-12-27T09:52:49.131Z,11.26
2022-12-27T09:55:29.971Z,11.27
2022-12-27T09:58:09.946Z,11.20
2022-12-27T10:00:40.028Z,11.24
2022-12-27T10:03:13.002Z,11.30
2022-12-27T10:05:45.050Z,11.30
2022-12-27T10:08:58.140Z,11.24
2022-12-27T10:11:59.981Z,11.38
2022-12-27T10:14:50.321Z,11.39
2022-12-27T10:17:24.471Z,11.34
2022-12-27T10:20:13.205Z,11.10
2022-12-27T10:22:50.385Z,11.16
2022-12-27T10:25:21.678Z,11.04
2022-12-27T10:27:54.012Z,10.88
2022-12-27T10:30:22.862Z,10.93
2022-12-27T10:32:50.851Z,10.93
2022-12-27T10:35:21.287Z,10.84
2022-12-27T10:37:50.010Z,10.76
2022-12-27T10:40:26.086Z,10.63
2022-12-27T10:43:03.708Z,10.61
2022-12-27T10:45:39.641Z,10.60
2022-12-27T10:48:15.287Z,10.63
2022-12-27T10:50:53.594Z,10.71
2022-12-27T10:53:38.594Z,10.75
2022-12-27T10:56:16.879Z,10.81
2022-12-27T10:58:52.966Z,10.78
2022-12-27T11:01:25.572Z,10.72
2022-12-27T11:04:21.172Z,10.75
2022-12-27T11:07:09.398Z,10.46
2022-12-27T11:09:50.377Z,10.49
2022-12-27T11:12:28.788Z,10.50
2022-12-27T11:14:59.972Z,10.46
2022-12-27T11:17:49.148Z,10.31
2022-12-27T11:20:38.358Z,10.29
2022-12-27T11:23:15.149Z,10.31
2022-12-27T11:25:54.421Z,10.23
2022-12-27T11:28:39.318Z,10.13
2022-12-27T11:31:10.167Z,10.07
2022-12-27T11:33:41.195Z,9.98
2022-12-27T11:36:10.811Z,9.92
2022-12-27T11:38:43.034Z,9.77
2022-12-27T11:41:49.898Z,9.76
2022-12-27T11:44:34.425Z,9.68
2022-12-27T11:47:33.056Z,9.72
2022-12-27T11:50:22.258Z,9.60
2022-12-27T11:52:59.011Z,9.54
2022-12-27T11:55:52.817Z,9.55
2022-12-27T11:58:32.749Z,9.58
2022-12-27T12:01:29.194Z,9.59
2022-12-27T12:04:22.441Z,9.64
2022-12-27T12:07:17.464Z,9.50
2022-12-27T12:09:54.367Z,9.57
2022-12-27T12:12:46.871Z,9.54
2022-12-27T12:15:52.366Z,9.54
2022-12-27T12:18:58.658Z,9.49
2022-12-27T12:21:33.445Z,9.43
2022-12-27T12:24:19.555Z,9.42
2022-12-27T12:27:23.003Z,9.38
2022-12-27T12:30:00.575Z,9.38
2022-12-27T12:32:43.695Z,9.39
2022-12-27T12:35:35.632Z,9.36
2022-12-27T12:38:12.058Z,9.28
2022-12-27T12:40:54.745Z,9.32
2022-12-27T12:43:50.037Z,9.16
2022-12-27T12:46:41.643Z,9.20
2022-12-27T12:49:28.142Z,9.17
2022-12-27T12:52:16.991Z,9.16
2022-12-27T12:55:03.771Z,9.13
2022-12-27T12:57:53.638Z,9.14
2022-12-27T13:00:39.599Z,9.15
2022-12-27T13:03:31.955Z,9.08
2022-12-27T13:06:18.254Z,9.05
2022-12-27T13:08:55.649Z,8.95
2022-12-27T13:11:41.942Z,8.91
2022-12-27T13:14:55.180Z,8.88
2022-12-27T13:17:47.984Z,8.82
2022-12-27T13:20:33.682Z,8.68
2022-12-27T13:23:27.102Z,8.63
2022-12-27T13:26:12.788Z,8.55
2022-12-27T13:29:19.434Z,8.57
2022-12-27T13:32:02.247Z,8.52
2022-12-27T13:34:37.541Z,8.49
2022-12-27T13:37:20.277Z,8.47
2022-12-27T13:39:47.979Z,8.41
2022-12-27T13:42:39.130Z,8.37
2022-12-27T13:45:28.123Z,8.33
2022-12-27T13:48:16.327Z,8.29
2022-12-27T13:51:05.443Z,8.25
2022-12-27T13:53:51.359Z,8.19
2022-12-27T13:56:54.041Z,8.18
2022-12-27T13:59:43.930Z,8.18
2022-12-27T14:02:42.691Z,8.15
2022-12-27T14:05:41.695Z,8.07
2022-12-27T14:08:31.245Z,8.06
2022-12-27T14:11:01.337Z,8.05
2022-12-27T14:13:36.181Z,8.12
2022-12-27T14:16:29.179Z,8.10
2022-12-27T14:19:10.050Z,8.04
2022-12-27T14:21:57.790Z,7.98
2022-12-27T14:24:46.555Z,7.76
2022-12-27T14:27:32.757Z,7.74
2022-12-27T14:30:19.320Z,7.65
2022-12-27T14:33:08.240Z,7.56
2022-12-27T14:35:56.476Z,7.46
2022-12-27T14:38:33.236Z,7.41
2022-12-27T14:41:34.304Z,7.34
2022-12-27T14:44:29.605Z,7.23
2022-12-27T14:47:31.124Z,7.25
2022-12-27T14:50:37.095Z,7.12
2022-12-27T14:53:19.427Z,7.12
2022-12-27T14:55:53.114Z,7.08
2022-12-27T14:58:51.162Z,6.99
2022-12-27T15:01:39.862Z,7.01
2022-12-27T15:04:31.969Z,6.98
2022-12-27T15:07:19.563Z,6.97
2022-12-27T15:10:21.699Z,6.88
2022-12-27T15:13:05.519Z,6.87
2022-12-27T15:15:53.342Z,6.86
2022-12-27T15:18:50.792Z,6.76
2022-12-27T15:21:42.626Z,6.77
2022-12-27T15:24:44.287Z,6.71
2022-12-27T15:27:16.442Z,6.65
2022-12-27T15:30:15.885Z,6.65
2022-12-27T15:33:07.694Z,6.68
2022-12-27T15:35:52.439Z,6.68
2022-12-27T15:38:41.324Z,6.64
2022-12-27T15:41:09.242Z,6.57
2022-12-27T15:43:54.290Z,6.56
2022-12-27T15:46:55.998Z,6.57
2022-12-27T15:50:01.300Z,6.46
2022-12-27T15:52:46.525Z,6.48
2022-12-27T15:56:07.227Z,6.44
2022-12-27T15:58:35.175Z,6.33
2022-12-27T16:01:28.058Z,6.27
2022-12-27T16:03:58.488Z,6.17
2022-12-27T16:06:35.066Z,6.05
2022-12-27T16:09:20.880Z,6.06
2022-12-27T16:12:03.528Z,5.97
2022-12-27T16:14:35.116Z,5.90
2022-12-27T16:17:59.850Z,5.81
2022-12-27T16:20:29.142Z,5.69
2022-12-27T16:23:08.047Z,5.65
2022-12-27T16:25:38.704Z,5.65
2022-12-27T16:28:15.921Z,5.50
2022-12-27T16:30:50.123Z,5.47
2022-12-27T16:33:26.674Z,5.32
2022-12-27T16:36:12.258Z,5.27
2022-12-27T16:38:56.942Z,5.14
2022-12-27T16:41:24.620Z,5.09
2022-12-27T16:44:15.402Z,5.02
2022-12-27T16:46:51.967Z,4.98
2022-12-27T16:49:35.627Z,4.94
2022-12-27T16:52:03.821Z,4.88
2022-12-27T16:55:12.851Z,4.94
2022-12-27T16:57:44.167Z,4.88
2022-12-27T17:00:11.666Z,4.80
2022-12-27T17:02:46.597Z,4.82
2022-12-27T17:05:14.369Z,4.73
2022-12-27T17:07:49.249Z,4.79
2022-12-27T17:10:30.269Z,4.71
2022-12-27T17:12:59.777Z,4.73
2022-12-27T17:15:28.137Z,4.72
2022-12-27T17:18:04.372Z,4.65
2022-12-27T17:20:32.687Z,4.71
2022-12-27T17:23:04.191Z,4.65
2022-12-27T17:25:48.552Z,4.55
2022-12-27T17:28:28.283Z,4.57
2022-12-27T17:31:08.218Z,4.64
2022-12-27T17:34:03.268Z,4.60
2022-12-27T17:37:01.764Z,4.57
2022-12-27T17:40:10.905Z,4.38
2022-12-27T17:43:21.443Z,4.40
2022-12-27T17:45:57.759Z,4.41
2022-12-27T17:48:29.103Z,4.39
2022-12-27T17:51:02.338Z,4.32
2022-12-27T17:53:49.104Z,4.31
2022-12-27T17:56:38.043Z,4.24
2022-12-27T17:59:26.496Z,4.29
2022-12-27T18:01:59.257Z,4.26
2022-12-27T18:04:36.954Z,4.22
2022-12-27T18:07:07.529Z,4.22
2022-12-27T18:09:35.368Z,4.14
2022-12-27T18:12:10.225Z,4.07
2022-12-27T18:14:38.254Z,4.00
2022-12-27T18:17:06.119Z,4.06
2022-12-27T18:19:33.821Z,3.98
2022-12-27T18:22:02.888Z,3.95
2022-12-27T18:24:33.151Z,3.90
2022-12-27T18:27:16.033Z,3.84
2022-12-27T18:29:44.045Z,3.93
2022-12-27T18:32:15.963Z,3.81
2022-12-27T18:34:46.190Z,3.84
2022-12-27T18:37:18.915Z,3.81
2022-12-27T18:40:00.482Z,3.80
2022-12-27T18:42:44.774Z,3.64
2022-12-27T18:45:20.687Z,3.62
2022-12-27T18:47:52.519Z,3.53
2022-12-27T18:50:25.690Z,3.44
2022-12-27T18:53:05.703Z,3.49
2022-12-27T18:55:34.269Z,3.38
2022-12-27T18:58:19.870Z,3.36
2022-12-27T19:01:13.860Z,3.28
2022-12-27T19:03:41.696Z,3.21
2022-12-27T19:06:13.122Z,3.28
2022-12-27T19:08:51.374Z,3.19
2022-12-27T19:11:25.723Z,3.25
2022-12-27T19:13:56.699Z,3.13
2022-12-27T19:16:29.222Z,3.00
2022-12-27T19:19:08.269Z,3.08
2022-12-27T19:21:38.496Z,3.03
2022-12-27T19:24:24.126Z,3.02
2022-12-27T19:26:52.497Z,2.96
2022-12-27T19:29:23.013Z,2.89
2022-12-27T19:32:06.827Z,2.84
2022-12-27T19:34:51.556Z,2.80
2022-12-27T19:37:19.439Z,2.76
2022-12-27T19:39:48.736Z,2.72
2022-12-27T19:42:27.009Z,2.65
2022-12-27T19:44:54.919Z,2.71
2022-12-27T19:47:22.582Z,2.59
2022-12-27T19:49:50.039Z,2.58
2022-12-27T19:52:24.054Z,2.59
2022-12-27T19:55:01.063Z,2.55
2022-12-27T19:57:28.837Z,2.57
2022-12-27T19:59:56.591Z,2.53
2022-12-27T20:02:24.385Z,2.48
2022-12-27T20:04:53.484Z,2.49
2022-12-27T20:07:25.480Z,2.47
2022-12-27T20:09:53.985Z,2.36
2022-12-27T20:12:21.747Z,2.29
2022-12-27T20:14:49.241Z,2.42
2022-12-27T20:17:17.063Z,2.38
2022-12-27T20:19:45.026Z,2.32
2022-12-27T20:22:12.583Z,2.14
2022-12-27T20:24:40.495Z,2.22
2022-12-27T20:27:07.946Z,2.14
2022-12-27T20:29:35.771Z,2.10
2022-12-27T20:32:04.073Z,1.85
2022-12-27T20:34:31.789Z,1.79
2022-12-27T20:37:00.288Z,1.95
2022-12-27T20:39:28.269Z,1.86
2022-12-27T20:41:56.318Z,1.84
2022-12-27T20:44:23.972Z,1.80
2022-12-27T20:46:51.730Z,1.68
2022-12-27T20:49:19.453Z,1.62
2022-12-27T20:51:46.916Z,1.59
2022-12-27T20:54:16.505Z,1.58
2022-12-27T20:56:44.238Z,1.48
2022-12-27T20:59:12.126Z,1.45
2022-12-27T21:01:40.021Z,1.39
2022-12-27T21:04:07.603Z,1.32
2022-12-27T21:06:35.165Z,1.30
2022-12-27T21:09:03.107Z,1.29
2022-12-27T21:11:32.288Z,1.27
2022-12-27T21:14:04.336Z,1.25
2022-12-27T21:16:34.683Z,1.35
2022-12-27T21:19:04.907Z,1.34
2022-12-27T21:21:35.561Z,1.39
2022-12-27T21:24:03.731Z,1.35
2022-12-27T21:26:33.709Z,1.35
2022-12-27T21:29:04.097Z,1.28
2022-12-27T21:31:31.840Z,1.31
2022-12-27T21:34:00.191Z,1.30
2022-12-27T21:36:30.509Z,1.35
2022-12-27T21:38:58.997Z,1.14
2022-12-27T21:41:28.815Z,1.20
2022-12-27T21:43:56.813Z,1.04
2022-12-27T21:46:30.185Z,0.98
2022-12-27T21:49:03.222Z,1.10
2022-12-27T21:51:32.570Z,1.23
2022-12-27T21:54:00.856Z,1.22
2022-12-27T21:56:29.269Z,1.24
2022-12-27T21:58:59.037Z,1.23
2022-12-27T22:01:50.819Z,1.21
2022-12-27T22:04:21.554Z,1.21
2022-12-27T22:06:49.417Z,1.23
2022-12-27T22:09:16.853Z,1.26
2022-12-27T22:11:45.022Z,1.23
2022-12-27T22:14:12.503Z,1.22
2022-12-27T22:16:40.075Z,1.21
2022-12-27T22:19:10.138Z,1.17
2022-12-27T22:21:39.233Z,1.20
2022-12-27T22:24:12.898Z,1.19
2022-12-27T22:26:41.865Z,1.20
2022-12-27T22:29:10.102Z,1.18
2022-12-27T22:31:38.170Z,1.22
2022-12-27T22:34:06.369Z,1.23
2022-12-27T22:36:34.625Z,1.24
2022-12-27T22:39:02.521Z,1.15
2022-12-27T22:41:32.829Z,1.07
2022-12-27T22:44:10.538Z,1.07
2022-12-27T22:47:06.683Z,1.01
2022-12-27T22:49:26.551Z,1.00
2022-12-27T22:51:54.247Z,1.05
2022-12-27T22:54:21.679Z,1.07
2022-12-27T22:57:09.361Z,1.09
2022-12-27T22:59:36.731Z,1.12
2022-12-27T23:02:04.426Z,1.13
2022-12-27T23:04:32.246Z,1.09
2022-12-27T23:07:02.051Z,1.16
2022-12-27T23:09:40.871Z,1.12
2022-12-27T23:12:11.683Z,1.12
2022-12-27T23:14:40.020Z,1.16
2022-12-27T23:17:07.527Z,1.15
2022-12-27T23:19:35.574Z,1.12
2022-12-27T23:22:03.097Z,1.19
2022-12-27T23:24:30.625Z,1.26
2022-12-27T23:26:58.396Z,1.24
2022-12-27T23:29:25.822Z,1.26
2022-12-27T23:31:54.342Z,1.20
2022-12-27T23:34:28.187Z,1.14
2022-12-27T23:36:57.889Z,1.16
2022-12-27T23:39:26.161Z,1.15
2022-12-27T23:41:54.033Z,1.10
2022-12-27T23:44:33.160Z,1.03
2022-12-27T23:47:06.243Z,1.01
2022-12-27T23:49:34.208Z,0.94
2022-12-27T23:52:02.038Z,0.84
2022-12-27T23:54:29.522Z,0.97
2022-12-27T23:56:57.009Z,0.92
2022-12-27T23:59:24.849Z,0.93
